createdAt,value
2019-01-12T00:02:08.705Z,29.50
2019-01-12T00:04:40.122Z,29.50
2019-01-12T00:07:11.292Z,29.50
2019-01-12T00:09:42.419Z,29.50
2019-01-12T00:12:13.543Z,29.50
2019-01-12T00:14:44.847Z,29.50
2019-01-12T00:17:16.080Z,29.50
2019-01-12T00:19:47.315Z,29.50
2019-01-12T00:22:18.499Z,29.50
2019-01-12T00:24:49.398Z,29.60
2019-01-12T00:27:20.833Z,29.60
2019-01-12T00:29:52.270Z,29.60
2019-01-12T00:32:23.310Z,29.60
2019-01-12T00:34:54.356Z,29.60
2019-01-12T00:37:25.801Z,29.60
2019-01-12T00:39:56.669Z,29.60
2019-01-12T00:42:27.681Z,29.70
2019-01-12T00:44:58.931Z,29.70
2019-01-12T00:47:30.031Z,29.70
2019-01-12T00:50:01.032Z,29.70
2019-01-12T00:52:32.061Z,29.70
2019-01-12T00:55:03.499Z,29.80
2019-01-12T00:57:34.660Z,29.80
2019-01-12T01:00:12.557Z,29.80
2019-01-12T01:02:43.895Z,29.80
2019-01-12T01:05:16.107Z,29.80
2019-01-12T01:07:46.910Z,29.80
2019-01-12T01:10:21.035Z,29.90
2019-01-12T01:12:52.057Z,29.90
2019-01-12T01:15:23.893Z,29.90
2019-01-12T01:17:55.045Z,29.90
2019-01-12T01:20:25.791Z,29.90
2019-01-12T01:22:56.938Z,29.90
2019-01-12T01:25:29.358Z,29.90
2019-01-12T01:28:00.270Z,29.90
2019-01-12T01:30:34.651Z,29.90
2019-01-12T01:33:07.193Z,30.00
2019-01-12T01:35:38.198Z,29.90
2019-01-12T01:38:09.321Z,29.90
2019-01-12T01:40:41.090Z,30.00
2019-01-12T01:43:12.222Z,30.00
2019-01-12T01:45:43.362Z,30.00
2019-01-12T01:48:14.515Z,29.90
2019-01-12T01:50:46.274Z,30.00
2019-01-12T01:53:17.406Z,29.90
2019-01-12T01:55:48.558Z,30.00
2019-01-12T01:58:20.009Z,30.00
2019-01-12T02:00:51.766Z,30.00
2019-01-12T02:03:22.928Z,30.00
2019-01-12T02:05:53.894Z,30.00
2019-01-12T02:08:24.749Z,30.00
2019-01-12T02:10:55.017Z,30.00
2019-01-12T02:13:26.259Z,30.00
2019-01-12T02:15:56.683Z,30.00
2019-01-12T02:18:27.621Z,30.00
2019-01-12T02:20:58.056Z,30.10
2019-01-12T02:23:28.786Z,30.10
2019-01-12T02:26:00.499Z,30.10
2019-01-12T02:28:31.373Z,30.50
2019-01-12T02:31:02.213Z,30.10
2019-01-12T02:33:34.014Z,30.10
2019-01-12T02:36:05.455Z,30.10
2019-01-12T02:38:36.503Z,30.20
2019-01-12T02:41:08.023Z,30.10
2019-01-12T02:43:39.053Z,30.10
2019-01-12T02:46:10.346Z,30.20
2019-01-12T02:48:41.154Z,30.30
2019-01-12T02:51:12.714Z,30.20
2019-01-12T02:53:44.287Z,30.20
2019-01-12T02:56:15.800Z,30.30
2019-01-12T02:58:47.010Z,30.30
2019-01-12T03:01:17.851Z,30.30
2019-01-12T03:03:49.234Z,30.30
2019-01-12T03:06:20.378Z,30.30
2019-01-12T03:08:52.150Z,30.30
2019-01-12T03:11:23.584Z,30.30
2019-01-12T03:13:55.324Z,30.30
2019-01-12T03:16:26.486Z,30.40
2019-01-12T03:18:57.969Z,30.40
2019-01-12T03:21:29.110Z,30.40
2019-01-12T03:24:00.263Z,30.50
2019-01-12T03:26:31.693Z,30.50
2019-01-12T03:29:02.872Z,30.50
2019-01-12T03:31:33.962Z,30.50
2019-01-12T03:34:05.019Z,30.50
2019-01-12T03:36:35.947Z,30.50
2019-01-12T03:39:08.945Z,30.50
2019-01-12T03:41:39.772Z,30.50
2019-01-12T03:44:10.615Z,30.60
2019-01-12T03:46:41.438Z,30.50
2019-01-12T03:49:12.596Z,30.50
2019-01-12T03:51:43.933Z,30.50
2019-01-12T03:54:15.027Z,30.50
2019-01-12T03:56:46.014Z,30.50
2019-01-12T03:59:18.386Z,30.70
2019-01-12T04:01:49.377Z,30.50
2019-01-12T04:04:20.470Z,30.60
2019-01-12T04:06:51.818Z,30.60
2019-01-12T04:09:22.988Z,30.60
2019-01-12T04:11:54.007Z,30.60
2019-01-12T04:14:25.177Z,30.60
2019-01-12T04:16:56.563Z,30.60
2019-01-12T04:19:27.741Z,30.60
2019-01-12T04:21:58.794Z,30.70
2019-01-12T04:24:29.758Z,30.80
2019-01-12T04:27:00.461Z,30.70
2019-01-12T04:29:31.391Z,30.70
2019-01-12T04:32:02.254Z,30.70
2019-01-12T04:34:33.683Z,30.80
2019-01-12T04:37:05.131Z,30.70
2019-01-12T04:39:36.301Z,30.70
2019-01-12T04:42:07.169Z,31.30
2019-01-12T04:44:37.950Z,30.80
2019-01-12T04:47:09.402Z,30.80
2019-01-12T04:49:40.748Z,30.80
2019-01-12T04:52:12.401Z,30.80
2019-01-12T04:54:42.847Z,30.90
2019-01-12T04:57:13.466Z,30.80
2019-01-12T04:59:43.892Z,30.80
2019-01-12T05:02:15.154Z,30.90
2019-01-12T05:04:45.568Z,30.90
2019-01-12T05:07:16.536Z,30.90
2019-01-12T05:09:46.925Z,30.90
2019-01-12T05:12:17.559Z,30.90
2019-01-12T05:14:47.938Z,31.00
2019-01-12T05:17:20.154Z,30.90
2019-01-12T05:19:50.586Z,31.00
2019-01-12T05:22:21.563Z,31.00
2019-01-12T05:24:52.259Z,31.00
2019-01-12T05:27:23.229Z,31.00
2019-01-12T05:29:53.697Z,31.00
2019-01-12T05:32:25.211Z,31.00
2019-01-12T05:34:56.627Z,31.10
2019-01-12T05:37:27.773Z,31.10
2019-01-12T05:39:59.213Z,31.10
2019-01-12T05:42:31.277Z,31.10
2019-01-12T05:45:02.514Z,31.10
2019-01-12T05:47:34.431Z,31.10
2019-01-12T05:50:07.214Z,31.00
2019-01-12T05:52:38.340Z,31.10
2019-01-12T05:55:09.698Z,31.10
2019-01-12T05:57:40.602Z,31.10
2019-01-12T06:00:15.617Z,31.20
2019-01-12T06:02:46.895Z,31.20
2019-01-12T06:05:19.267Z,31.10
2019-01-12T06:07:50.401Z,31.20
2019-01-12T06:10:21.571Z,31.20
2019-01-12T06:12:52.990Z,31.10
2019-01-12T06:15:24.441Z,31.30
2019-01-12T06:17:55.628Z,31.20
2019-01-12T06:20:26.451Z,31.20
2019-01-12T06:22:57.565Z,31.20
2019-01-12T06:25:28.559Z,31.30
2019-01-12T06:27:59.581Z,31.20
2019-01-12T06:30:31.018Z,31.30
2019-01-12T06:33:02.142Z,31.30
2019-01-12T06:35:33.182Z,31.30
2019-01-12T06:38:04.970Z,31.30
2019-01-12T06:40:36.090Z,31.30
2019-01-12T06:43:07.179Z,31.40
2019-01-12T06:45:38.486Z,31.40
2019-01-12T06:48:09.322Z,31.30
2019-01-12T06:50:40.141Z,31.30
2019-01-12T06:53:12.114Z,31.80
2019-01-12T06:55:44.505Z,31.40
2019-01-12T06:58:15.357Z,31.30
2019-01-12T07:00:46.211Z,31.40
2019-01-12T07:03:17.706Z,31.40
2019-01-12T07:05:48.664Z,31.40
2019-01-12T07:08:19.521Z,31.40
2019-01-12T07:10:50.537Z,31.50
2019-01-12T07:13:21.496Z,31.30
2019-01-12T07:15:52.911Z,31.30
2019-01-12T07:18:23.874Z,31.40
2019-01-12T07:20:57.654Z,31.40
2019-01-12T07:23:28.797Z,31.30
2019-01-12T07:25:59.834Z,31.40
2019-01-12T07:28:30.913Z,31.30
2019-01-12T07:31:02.010Z,31.30
2019-01-12T07:33:33.074Z,31.30
2019-01-12T07:36:04.827Z,31.30
2019-01-12T07:38:35.871Z,31.40
2019-01-12T07:41:06.858Z,31.40
2019-01-12T07:43:38.123Z,31.40
2019-01-12T07:46:09.106Z,31.30
2019-01-12T07:48:39.793Z,31.30
2019-01-12T07:51:10.784Z,31.40
2019-01-12T07:53:42.245Z,31.30
2019-01-12T07:56:13.362Z,31.20
2019-01-12T07:58:44.570Z,31.30
2019-01-12T08:01:15.690Z,31.30
2019-01-12T08:03:46.398Z,32.00
2019-01-12T08:06:17.361Z,31.30
2019-01-12T08:08:47.846Z,31.30
2019-01-12T08:11:18.307Z,31.20
2019-01-12T08:13:48.907Z,31.30
2019-01-12T08:16:19.610Z,31.30
2019-01-12T08:18:50.274Z,31.20
2019-01-12T08:21:21.045Z,31.20
2019-01-12T08:23:51.615Z,31.20
2019-01-12T08:26:22.518Z,31.10
2019-01-12T08:28:53.329Z,31.20
2019-01-12T08:31:23.886Z,31.20
2019-01-12T08:33:55.295Z,31.30
2019-01-12T08:36:26.443Z,31.20
2019-01-12T08:38:58.404Z,31.40
2019-01-12T08:41:30.149Z,32.40
2019-01-12T08:44:01.302Z,33.00
2019-01-12T08:46:32.806Z,32.80
2019-01-12T08:49:04.001Z,32.70
2019-01-12T08:51:34.866Z,32.50
2019-01-12T08:54:06.490Z,32.30
2019-01-12T08:56:38.636Z,32.20
2019-01-12T08:59:10.109Z,32.30
2019-01-12T09:01:41.772Z,32.10
2019-01-12T09:04:12.941Z,32.00
2019-01-12T09:06:44.294Z,31.90
2019-01-12T09:09:15.827Z,31.80
2019-01-12T09:11:47.178Z,31.80
2019-01-12T09:14:18.404Z,31.80
2019-01-12T09:16:49.838Z,31.60
2019-01-12T09:19:21.042Z,31.60
2019-01-12T09:21:52.581Z,31.60
2019-01-12T09:24:23.586Z,31.80
2019-01-12T09:26:56.595Z,31.70
2019-01-12T09:29:28.631Z,31.60
2019-01-12T09:31:59.633Z,31.60
2019-01-12T09:34:31.484Z,31.60
2019-01-12T09:37:02.641Z,31.60
2019-01-12T09:39:33.729Z,31.60
2019-01-12T09:42:04.614Z,31.60
2019-01-12T09:44:35.419Z,31.50
2019-01-12T09:47:07.010Z,31.60
2019-01-12T09:49:38.619Z,31.60
2019-01-12T09:52:10.874Z,32.10
2019-01-12T09:54:41.823Z,32.00
2019-01-12T09:57:13.611Z,31.90
2019-01-12T09:59:44.726Z,31.80
2019-01-12T10:02:15.978Z,31.70
2019-01-12T10:04:47.320Z,31.70
2019-01-12T10:07:18.189Z,31.70
2019-01-12T10:09:49.512Z,31.60
2019-01-12T10:12:20.777Z,31.60
2019-01-12T10:14:51.625Z,31.80
2019-01-12T10:17:22.421Z,31.70
2019-01-12T10:19:53.561Z,31.70
2019-01-12T10:22:28.579Z,31.70
2019-01-12T10:24:58.002Z,31.70
2019-01-12T10:27:29.467Z,32.00
2019-01-12T10:30:01.839Z,31.80
2019-01-12T10:32:32.865Z,31.80
2019-01-12T10:35:04.449Z,31.80
2019-01-12T10:37:36.522Z,31.70
2019-01-12T10:40:08.602Z,31.70
2019-01-12T10:42:39.702Z,31.70
2019-01-12T10:45:13.010Z,31.70
2019-01-12T10:47:45.589Z,31.80
2019-01-12T10:50:20.375Z,31.70
2019-01-12T10:52:51.519Z,31.70
2019-01-12T10:55:24.549Z,31.70
2019-01-12T10:57:55.708Z,31.70
2019-01-12T11:00:31.099Z,31.70
2019-01-12T11:03:02.259Z,31.70
2019-01-12T11:05:32.708Z,31.60
2019-01-12T11:08:03.647Z,31.60
2019-01-12T11:10:34.114Z,31.50
2019-01-12T11:13:05.610Z,31.50
2019-01-12T11:15:36.185Z,31.50
2019-01-12T11:18:07.286Z,31.50
2019-01-12T11:20:37.709Z,31.50
2019-01-12T11:23:08.958Z,31.50
2019-01-12T11:25:42.935Z,31.50
2019-01-12T11:28:12.769Z,31.40
2019-01-12T11:30:44.150Z,31.40
2019-01-12T11:33:15.368Z,31.40
2019-01-12T11:35:46.434Z,31.40
2019-01-12T11:38:18.017Z,31.60
2019-01-12T11:40:49.185Z,31.40
2019-01-12T11:43:20.262Z,31.50
2019-01-12T11:45:51.075Z,31.50
2019-01-12T11:48:23.187Z,31.50
2019-01-12T11:50:54.351Z,31.50
2019-01-12T11:53:25.775Z,31.70
2019-01-12T11:55:57.210Z,31.80
2019-01-12T11:58:28.057Z,31.70
2019-01-12T12:01:00.081Z,31.60
2019-01-12T12:03:34.637Z,31.40
2019-01-12T12:06:06.996Z,31.10
2019-01-12T12:08:37.861Z,30.90
2019-01-12T12:11:08.702Z,30.60
2019-01-12T12:13:40.117Z,30.40
2019-01-12T12:16:11.446Z,30.20
2019-01-12T12:18:43.019Z,30.00
2019-01-12T12:21:14.182Z,29.90
2019-01-12T12:23:45.713Z,29.80
2019-01-12T12:26:17.374Z,29.70
2019-01-12T12:28:49.130Z,29.70
2019-01-12T12:31:20.283Z,29.50
2019-01-12T12:33:51.886Z,29.50
2019-01-12T12:36:22.865Z,29.40
2019-01-12T12:38:54.195Z,29.30
2019-01-12T12:41:25.775Z,29.30
2019-01-12T12:43:57.258Z,29.30
2019-01-12T12:46:28.371Z,29.10
2019-01-12T12:48:59.709Z,29.10
2019-01-12T12:51:31.878Z,29.00
2019-01-12T12:54:03.332Z,28.80
2019-01-12T12:56:34.792Z,29.00
2019-01-12T12:59:05.921Z,29.20
2019-01-12T13:01:37.348Z,29.30
2019-01-12T13:04:10.049Z,29.60
2019-01-12T13:06:41.024Z,29.80
2019-01-12T13:09:12.343Z,29.90
2019-01-12T13:11:44.130Z,30.00
2019-01-12T13:14:15.555Z,30.20
2019-01-12T13:16:46.722Z,30.30
2019-01-12T13:19:17.485Z,30.50
2019-01-12T13:21:48.996Z,30.60
2019-01-12T13:24:20.055Z,30.60
2019-01-12T13:26:51.270Z,30.50
2019-01-12T13:29:23.266Z,30.80
2019-01-12T13:31:54.201Z,30.90
2019-01-12T13:34:25.206Z,31.00
2019-01-12T13:36:56.766Z,30.90
2019-01-12T13:39:32.024Z,31.00
2019-01-12T13:42:00.897Z,31.00
2019-01-12T13:44:32.062Z,31.00
2019-01-12T13:47:03.489Z,31.00
2019-01-12T13:49:34.641Z,31.10
2019-01-12T13:52:05.501Z,31.00
2019-01-12T13:54:36.650Z,31.00
2019-01-12T13:57:08.109Z,31.00
2019-01-12T13:59:46.445Z,31.20
2019-01-12T14:02:17.789Z,31.90
2019-01-12T14:04:48.461Z,32.00
2019-01-12T14:07:19.316Z,32.20
2019-01-12T14:09:49.935Z,32.10
2019-01-12T14:12:20.638Z,31.90
2019-01-12T14:14:51.300Z,32.20
2019-01-12T14:17:21.998Z,31.30
2019-01-12T14:19:52.607Z,31.30
2019-01-12T14:22:23.260Z,31.30
2019-01-12T14:24:53.935Z,31.40
2019-01-12T14:27:24.654Z,31.50
2019-01-12T14:29:55.494Z,31.50
2019-01-12T14:32:26.122Z,31.60
2019-01-12T14:34:56.759Z,31.70
2019-01-12T14:37:27.606Z,31.80
2019-01-12T14:39:58.961Z,31.90
2019-01-12T14:42:30.524Z,31.90
2019-01-12T14:45:01.955Z,31.90
2019-01-12T14:47:33.096Z,32.00
2019-01-12T14:50:07.153Z,32.10
2019-01-12T14:52:39.383Z,32.30
2019-01-12T14:55:11.749Z,32.20
2019-01-12T14:57:43.840Z,32.30
2019-01-12T15:00:20.485Z,32.30
2019-01-12T15:02:51.935Z,32.30
2019-01-12T15:05:25.556Z,32.30
2019-01-12T15:07:57.018Z,32.20
2019-01-12T15:10:28.127Z,32.30
2019-01-12T15:12:59.581Z,32.30
2019-01-12T15:15:31.057Z,32.40
2019-01-12T15:18:02.203Z,32.60
2019-01-12T15:20:33.819Z,32.60
2019-01-12T15:23:06.620Z,32.60
2019-01-12T15:25:37.762Z,32.70
2019-01-12T15:28:09.605Z,32.70
2019-01-12T15:30:40.572Z,32.80
2019-01-12T15:33:12.725Z,33.50
2019-01-12T15:35:44.673Z,33.00
2019-01-12T15:38:15.374Z,33.30
2019-01-12T15:40:46.598Z,33.50
2019-01-12T15:43:18.320Z,33.50
2019-01-12T15:45:49.464Z,33.60
2019-01-12T15:48:20.622Z,33.80
2019-01-12T15:50:52.064Z,33.60
2019-01-12T15:53:22.894Z,33.00
2019-01-12T15:55:53.769Z,32.60
2019-01-12T15:58:24.902Z,32.40
2019-01-12T16:00:55.741Z,32.30
2019-01-12T16:03:27.775Z,32.20
2019-01-12T16:05:59.269Z,32.00
2019-01-12T16:08:30.072Z,32.00
2019-01-12T16:11:01.117Z,31.90
2019-01-12T16:13:32.078Z,31.90
2019-01-12T16:16:03.492Z,31.70
2019-01-12T16:18:34.232Z,31.70
2019-01-12T16:21:05.482Z,31.70
2019-01-12T16:23:36.957Z,31.60
2019-01-12T16:26:08.131Z,31.60
2019-01-12T16:28:39.790Z,31.60
2019-01-12T16:31:12.444Z,31.60
2019-01-12T16:33:43.656Z,31.50
2019-01-12T16:36:15.115Z,31.60
2019-01-12T16:38:46.676Z,31.40
2019-01-12T16:41:18.691Z,31.60
2019-01-12T16:43:50.345Z,31.50
2019-01-12T16:46:21.929Z,31.50
2019-01-12T16:48:53.189Z,31.50
2019-01-12T16:51:24.334Z,31.50
2019-01-12T16:53:55.295Z,31.60
2019-01-12T16:56:26.500Z,31.60
2019-01-12T16:58:57.961Z,31.70
2019-01-12T17:01:29.600Z,31.60
2019-01-12T17:04:00.920Z,31.60
2019-01-12T17:06:31.992Z,31.60
2019-01-12T17:09:03.585Z,31.60
2019-01-12T17:11:35.858Z,31.70
2019-01-12T17:14:07.202Z,31.80
2019-01-12T17:16:39.803Z,32.60
2019-01-12T17:19:11.025Z,31.90
2019-01-12T17:21:42.791Z,31.80
2019-01-12T17:24:16.702Z,31.80
2019-01-12T17:26:47.894Z,31.90
2019-01-12T17:29:18.950Z,31.90
2019-01-12T17:31:51.013Z,31.90
2019-01-12T17:34:22.159Z,31.90
2019-01-12T17:36:58.736Z,31.90
2019-01-12T17:39:25.876Z,31.80
2019-01-12T17:41:57.443Z,31.90
2019-01-12T17:44:29.201Z,32.00
2019-01-12T17:47:00.106Z,32.10
2019-01-12T17:49:32.380Z,32.20
2019-01-12T17:52:04.267Z,32.20
2019-01-12T17:54:35.418Z,32.40
2019-01-12T17:57:06.575Z,32.40
2019-01-12T17:59:37.158Z,32.50
2019-01-12T18:02:08.359Z,32.40
2019-01-12T18:04:39.189Z,32.40
2019-01-12T18:07:10.329Z,32.30
2019-01-12T18:09:41.096Z,32.20
2019-01-12T18:12:12.211Z,32.20
2019-01-12T18:14:42.778Z,32.20
2019-01-12T18:17:14.017Z,32.10
2019-01-12T18:19:44.559Z,32.20
2019-01-12T18:22:15.317Z,32.10
2019-01-12T18:24:45.806Z,32.00
2019-01-12T18:27:17.006Z,32.00
2019-01-12T18:29:47.589Z,31.90
2019-01-12T18:32:18.714Z,31.90
2019-01-12T18:34:49.456Z,31.90
2019-01-12T18:37:20.645Z,31.90
2019-01-12T18:39:51.679Z,31.80
2019-01-12T18:42:23.163Z,31.80
2019-01-12T18:44:54.901Z,31.70
2019-01-12T18:47:26.345Z,31.80
2019-01-12T18:49:58.650Z,31.70
2019-01-12T18:52:29.717Z,31.80
2019-01-12T18:55:01.082Z,32.40
2019-01-12T18:57:32.680Z,31.70
2019-01-12T19:00:04.166Z,31.60
2019-01-12T19:02:35.750Z,31.70
2019-01-12T19:05:08.109Z,31.60
2019-01-12T19:07:38.940Z,31.60
2019-01-12T19:10:10.285Z,31.60
2019-01-12T19:12:41.712Z,31.60
2019-01-12T19:15:18.771Z,31.60
2019-01-12T19:17:50.513Z,31.50
2019-01-12T19:20:21.962Z,31.50
2019-01-12T19:22:53.048Z,31.50
2019-01-12T19:25:24.330Z,31.60
2019-01-12T19:27:55.996Z,31.50
2019-01-12T19:30:26.580Z,31.50
2019-01-12T19:32:57.321Z,31.50
2019-01-12T19:35:28.155Z,31.50
2019-01-12T19:37:58.816Z,31.50
2019-01-12T19:40:29.495Z,31.50
2019-01-12T19:43:00.935Z,31.50
2019-01-12T19:45:32.176Z,31.50
2019-01-12T19:48:04.593Z,31.50
2019-01-12T19:50:35.892Z,31.40
2019-01-12T19:53:07.677Z,32.20
2019-01-12T19:55:39.127Z,31.50
2019-01-12T19:58:10.410Z,31.40
2019-01-12T20:00:41.869Z,31.50
2019-01-12T20:03:13.383Z,31.50
2019-01-12T20:05:44.942Z,31.40
2019-01-12T20:08:18.848Z,31.40
2019-01-12T20:10:50.073Z,31.40
2019-01-12T20:13:21.736Z,31.40
2019-01-12T20:15:53.555Z,31.30
2019-01-12T20:18:24.883Z,31.40
2019-01-12T20:20:56.389Z,31.40
2019-01-12T20:23:27.680Z,31.40
2019-01-12T20:26:04.004Z,31.40
2019-01-12T20:28:36.888Z,31.30
2019-01-12T20:32:07.627Z,31.40
2019-01-12T20:34:46.470Z,31.40
2019-01-12T20:38:11.477Z,31.40
2019-01-12T20:41:10.182Z,31.40
2019-01-12T20:43:50.595Z,31.40
2019-01-12T20:47:08.809Z,31.40
2019-01-12T20:50:20.194Z,31.50
2019-01-12T20:53:30.918Z,31.40
2019-01-12T20:56:42.630Z,31.40
2019-01-12T20:59:49.388Z,31.40
2019-01-12T21:02:58.625Z,31.40
2019-01-12T21:06:07.748Z,31.50
2019-01-12T21:09:10.348Z,31.40
2019-01-12T21:12:14.539Z,31.40
2019-01-12T21:15:00.452Z,31.40
2019-01-12T21:17:31.302Z,31.30
2019-01-12T21:20:02.058Z,31.30
2019-01-12T21:22:34.450Z,31.30
2019-01-12T21:25:06.556Z,31.30
2019-01-12T21:27:37.067Z,31.30
2019-01-12T21:30:12.241Z,31.30
2019-01-12T21:32:42.730Z,31.30
2019-01-12T21:35:13.994Z,31.30
2019-01-12T21:37:45.000Z,31.30
2019-01-12T21:40:15.983Z,31.30
2019-01-12T21:42:46.994Z,31.30
2019-01-12T21:45:17.733Z,31.30
2019-01-12T21:47:48.688Z,31.30
2019-01-12T21:50:19.644Z,31.30
2019-01-12T21:52:50.479Z,31.30
2019-01-12T21:55:22.538Z,31.30
2019-01-12T21:57:53.538Z,31.40
2019-01-12T22:00:24.520Z,31.30
2019-01-12T22:02:55.531Z,31.30
2019-01-12T22:05:26.363Z,31.20
2019-01-12T22:07:57.221Z,31.30
2019-01-12T22:10:28.184Z,31.40
2019-01-12T22:12:58.914Z,31.20
2019-01-12T22:15:29.835Z,31.30
2019-01-12T22:18:00.627Z,31.30
2019-01-12T22:20:31.282Z,31.30
2019-01-12T22:23:02.322Z,31.30
2019-01-12T22:25:32.875Z,31.30
2019-01-12T22:28:03.329Z,31.40
2019-01-12T22:30:34.371Z,31.30
2019-01-12T22:33:06.605Z,31.30
2019-01-12T22:35:37.925Z,31.30
2019-01-12T22:38:09.253Z,31.30
2019-01-12T22:40:40.346Z,31.30
2019-01-12T22:43:11.535Z,31.30
2019-01-12T22:45:42.674Z,31.30
2019-01-12T22:48:13.296Z,31.30
2019-01-12T22:50:44.838Z,31.30
2019-01-12T22:53:17.088Z,31.30
2019-01-12T22:55:48.270Z,31.30
2019-01-12T22:58:19.786Z,31.30
2019-01-12T23:01:31.490Z,31.20
2019-01-12T23:04:02.921Z,31.20
2019-01-12T23:06:33.265Z,31.20
2019-01-12T23:09:05.471Z,31.20
2019-01-12T23:11:36.170Z,31.30
2019-01-12T23:14:07.497Z,31.30
2019-01-12T23:16:37.974Z,31.20
2019-01-12T23:19:09.169Z,31.30
2019-01-12T23:21:40.094Z,31.30
2019-01-12T23:24:10.899Z,31.20
2019-01-12T23:26:41.427Z,31.30
2019-01-12T23:29:12.350Z,31.20
2019-01-12T23:31:42.755Z,31.30
2019-01-12T23:34:14.042Z,31.30
2019-01-12T23:36:44.955Z,31.30
2019-01-12T23:39:15.587Z,31.30
2019-01-12T23:41:46.553Z,31.30
2019-01-12T23:44:18.053Z,31.30
2019-01-12T23:46:49.195Z,31.30
2019-01-12T23:49:20.366Z,31.30
2019-01-12T23:51:51.478Z,31.30
2019-01-12T23:54:22.234Z,31.30
2019-01-12T23:56:53.457Z,31.30
2019-01-12T23:59:23.902Z,31.30
